sensor_id;sensor_type;location;lat;lon;timestamp;P1;durP1;ratioP1;P2;durP2;ratioP2
52650;SDS011;38537;47.226;39.702;2023-07-31T00:00:14;18.90;;;6.43;;
52650;SDS011;38537;47.226;39.702;2023-07-31T00:02:41;21.70;;;6.70;;
52650;SDS011;38537;47.226;39.702;2023-07-31T00:05:09;19.33;;;6.47;;
52650;SDS011;38537;47.226;39.702;2023-07-31T00:07:38;15.55;;;7.75;;
52650;SDS011;38537;47.226;39.702;2023-07-31T00:10:05;18.02;;;6.43;;
52650;SDS011;38537;47.226;39.702;2023-07-31T00:12:33;21.27;;;6.80;;
52650;SDS011;38537;47.226;39.702;2023-07-31T00:15:01;16.02;;;8.15;;
52650;SDS011;38537;47.226;39.702;2023-07-31T00:17:31;16.52;;;8.82;;
52650;SDS011;38537;47.226;39.702;2023-07-31T00:19:58;17.75;;;7.75;;
52650;SDS011;38537;47.226;39.702;2023-07-31T00:22:26;16.73;;;7.65;;
52650;SDS011;38537;47.226;39.702;2023-07-31T00:24:53;12.88;;;6.28;;
52650;SDS011;38537;47.226;39.702;2023-07-31T00:27:21;13.30;;;6.25;;
52650;SDS011;38537;47.226;39.702;2023-07-31T00:29:49;15.52;;;7.90;;
52650;SDS011;38537;47.226;39.702;2023-07-31T00:32:17;16.92;;;7.38;;
52650;SDS011;38537;47.226;39.702;2023-07-31T00:34:44;17.45;;;7.47;;
52650;SDS011;38537;47.226;39.702;2023-07-31T00:37:12;19.90;;;8.65;;
52650;SDS011;38537;47.226;39.702;2023-07-31T00:39:40;18.80;;;8.88;;
52650;SDS011;38537;47.226;39.702;2023-07-31T00:42:08;23.00;;;9.30;;
52650;SDS011;38537;47.226;39.702;2023-07-31T00:44:35;19.52;;;7.93;;
52650;SDS011;38537;47.226;39.702;2023-07-31T00:47:02;20.35;;;9.20;;
52650;SDS011;38537;47.226;39.702;2023-07-31T00:49:30;19.77;;;9.35;;
52650;SDS011;38537;47.226;39.702;2023-07-31T00:51:58;15.15;;;7.68;;
52650;SDS011;38537;47.226;39.702;2023-07-31T00:54:27;21.27;;;8.75;;
52650;SDS011;38537;47.226;39.702;2023-07-31T00:56:54;21.73;;;8.57;;
52650;SDS011;38537;47.226;39.702;2023-07-31T00:59:21;20.05;;;7.93;;
52650;SDS011;38537;47.226;39.702;2023-07-31T01:01:49;23.23;;;9.13;;
52650;SDS011;38537;47.226;39.702;2023-07-31T01:04:17;28.75;;;9.63;;
52650;SDS011;38537;47.226;39.702;2023-07-31T01:09:32;14.90;;;7.35;;
52650;SDS011;38537;47.226;39.702;2023-07-31T01:12:07;25.13;;;10.45;;
52650;SDS011;38537;47.226;39.702;2023-07-31T01:14:39;19.55;;;7.45;;
52650;SDS011;38537;47.226;39.702;2023-07-31T01:17:06;27.83;;;9.20;;
52650;SDS011;38537;47.226;39.702;2023-07-31T01:19:34;21.38;;;8.75;;
52650;SDS011;38537;47.226;39.702;2023-07-31T01:27:36;33.35;;;10.73;;
52650;SDS011;38537;47.226;39.702;2023-07-31T01:30:17;29.75;;;10.35;;
52650;SDS011;38537;47.226;39.702;2023-07-31T01:32:51;32.22;;;11.18;;
52650;SDS011;38537;47.226;39.702;2023-07-31T01:35:22;22.48;;;10.02;;
52650;SDS011;38537;47.226;39.702;2023-07-31T01:37:52;28.58;;;10.70;;
52650;SDS011;38537;47.226;39.702;2023-07-31T01:40:21;23.90;;;10.98;;
52650;SDS011;38537;47.226;39.702;2023-07-31T01:42:48;23.30;;;8.90;;
52650;SDS011;38537;47.226;39.702;2023-07-31T01:45:15;26.08;;;9.70;;
52650;SDS011;38537;47.226;39.702;2023-07-31T01:47:43;20.25;;;8.00;;
52650;SDS011;38537;47.226;39.702;2023-07-31T01:50:12;16.85;;;7.45;;
52650;SDS011;38537;47.226;39.702;2023-07-31T01:52:41;27.10;;;9.85;;
52650;SDS011;38537;47.226;39.702;2023-07-31T01:55:08;18.80;;;8.73;;
52650;SDS011;38537;47.226;39.702;2023-07-31T01:57:36;20.98;;;9.27;;
52650;SDS011;38537;47.226;39.702;2023-07-31T02:00:04;21.80;;;8.68;;
52650;SDS011;38537;47.226;39.702;2023-07-31T02:02:38;17.27;;;8.13;;
52650;SDS011;38537;47.226;39.702;2023-07-31T02:05:06;18.17;;;8.38;;
52650;SDS011;38537;47.226;39.702;2023-07-31T02:07:33;15.40;;;8.85;;
52650;SDS011;38537;47.226;39.702;2023-07-31T02:10:02;16.08;;;8.98;;
52650;SDS011;38537;47.226;39.702;2023-07-31T02:12:32;22.35;;;9.20;;
52650;SDS011;38537;47.226;39.702;2023-07-31T02:15:02;35.45;;;10.98;;
52650;SDS011;38537;47.226;39.702;2023-07-31T02:17:33;20.27;;;9.18;;
52650;SDS011;38537;47.226;39.702;2023-07-31T02:20:00;18.50;;;8.68;;
52650;SDS011;38537;47.226;39.702;2023-07-31T02:22:32;17.40;;;9.90;;
52650;SDS011;38537;47.226;39.702;2023-07-31T02:24:59;16.92;;;9.48;;
52650;SDS011;38537;47.226;39.702;2023-07-31T02:27:30;25.52;;;10.88;;
52650;SDS011;38537;47.226;39.702;2023-07-31T02:29:57;19.60;;;9.75;;
52650;SDS011;38537;47.226;39.702;2023-07-31T02:32:26;18.92;;;9.77;;
52650;SDS011;38537;47.226;39.702;2023-07-31T02:34:53;17.92;;;8.75;;
52650;SDS011;38537;47.226;39.702;2023-07-31T02:37:21;16.77;;;8.88;;
52650;SDS011;38537;47.226;39.702;2023-07-31T02:39:50;18.17;;;9.80;;
52650;SDS011;38537;47.226;39.702;2023-07-31T02:42:17;23.42;;;10.45;;
52650;SDS011;38537;47.226;39.702;2023-07-31T02:44:46;18.55;;;9.45;;
52650;SDS011;38537;47.226;39.702;2023-07-31T02:47:13;19.85;;;9.45;;
52650;SDS011;38537;47.226;39.702;2023-07-31T02:49:41;14.98;;;8.70;;
52650;SDS011;38537;47.226;39.702;2023-07-31T02:52:09;18.48;;;9.25;;
52650;SDS011;38537;47.226;39.702;2023-07-31T02:54:36;21.00;;;9.73;;
52650;SDS011;38537;47.226;39.702;2023-07-31T02:57:04;19.80;;;9.43;;
52650;SDS011;38537;47.226;39.702;2023-07-31T02:59:31;19.75;;;9.70;;
52650;SDS011;38537;47.226;39.702;2023-07-31T03:01:58;16.65;;;8.68;;
52650;SDS011;38537;47.226;39.702;2023-07-31T03:04:26;18.48;;;9.70;;
52650;SDS011;38537;47.226;39.702;2023-07-31T03:06:55;18.02;;;9.75;;
52650;SDS011;38537;47.226;39.702;2023-07-31T03:09:22;12.95;;;7.43;;
52650;SDS011;38537;47.226;39.702;2023-07-31T03:11:49;20.33;;;8.60;;
52650;SDS011;38537;47.226;39.702;2023-07-31T03:14:16;15.77;;;9.25;;
52650;SDS011;38537;47.226;39.702;2023-07-31T03:16:44;22.70;;;11.20;;
52650;SDS011;38537;47.226;39.702;2023-07-31T03:19:11;23.38;;;10.68;;
52650;SDS011;38537;47.226;39.702;2023-07-31T03:21:39;21.52;;;9.32;;
52650;SDS011;38537;47.226;39.702;2023-07-31T03:24:07;23.83;;;9.90;;
52650;SDS011;38537;47.226;39.702;2023-07-31T03:26:34;18.52;;;9.82;;
52650;SDS011;38537;47.226;39.702;2023-07-31T03:29:03;21.00;;;9.23;;
52650;SDS011;38537;47.226;39.702;2023-07-31T03:31:31;26.50;;;9.60;;
52650;SDS011;38537;47.226;39.702;2023-07-31T03:33:58;14.70;;;7.03;;
52650;SDS011;38537;47.226;39.702;2023-07-31T03:36:27;16.00;;;8.05;;
52650;SDS011;38537;47.226;39.702;2023-07-31T03:38:54;18.60;;;7.53;;
52650;SDS011;38537;47.226;39.702;2023-07-31T03:41:21;12.07;;;6.95;;
52650;SDS011;38537;47.226;39.702;2023-07-31T03:43:49;12.40;;;6.40;;
52650;SDS011;38537;47.226;39.702;2023-07-31T03:46:19;10.85;;;6.85;;
52650;SDS011;38537;47.226;39.702;2023-07-31T03:48:48;13.88;;;6.43;;
52650;SDS011;38537;47.226;39.702;2023-07-31T03:51:16;12.40;;;6.15;;
52650;SDS011;38537;47.226;39.702;2023-07-31T03:53:44;16.42;;;7.00;;
52650;SDS011;38537;47.226;39.702;2023-07-31T03:56:12;12.23;;;6.20;;
52650;SDS011;38537;47.226;39.702;2023-07-31T03:58:39;14.38;;;6.65;;
52650;SDS011;38537;47.226;39.702;2023-07-31T04:01:06;17.13;;;8.20;;
52650;SDS011;38537;47.226;39.702;2023-07-31T04:03:34;26.85;;;9.57;;
52650;SDS011;38537;47.226;39.702;2023-07-31T04:06:01;17.45;;;7.40;;
52650;SDS011;38537;47.226;39.702;2023-07-31T04:08:29;13.57;;;6.00;;
52650;SDS011;38537;47.226;39.702;2023-07-31T04:10:57;17.45;;;6.88;;
52650;SDS011;38537;47.226;39.702;2023-07-31T04:13:24;20.95;;;7.07;;
52650;SDS011;38537;47.226;39.702;2023-07-31T04:15:54;15.88;;;6.78;;
52650;SDS011;38537;47.226;39.702;2023-07-31T04:18:22;18.52;;;8.45;;
52650;SDS011;38537;47.226;39.702;2023-07-31T04:20:51;13.82;;;7.47;;
52650;SDS011;38537;47.226;39.702;2023-07-31T04:23:20;14.95;;;6.78;;
52650;SDS011;38537;47.226;39.702;2023-07-31T04:25:47;11.95;;;6.90;;
52650;SDS011;38537;47.226;39.702;2023-07-31T04:28:15;11.38;;;6.40;;
52650;SDS011;38537;47.226;39.702;2023-07-31T04:30:43;14.75;;;6.38;;
52650;SDS011;38537;47.226;39.702;2023-07-31T04:33:10;13.13;;;6.68;;
52650;SDS011;38537;47.226;39.702;2023-07-31T04:35:38;9.45;;;6.38;;
52650;SDS011;38537;47.226;39.702;2023-07-31T04:38:05;8.73;;;5.55;;
52650;SDS011;38537;47.226;39.702;2023-07-31T04:40:32;9.05;;;5.63;;
52650;SDS011;38537;47.226;39.702;2023-07-31T04:43:00;6.82;;;5.40;;
52650;SDS011;38537;47.226;39.702;2023-07-31T04:45:28;7.70;;;5.88;;
52650;SDS011;38537;47.226;39.702;2023-07-31T04:47:55;13.18;;;7.53;;
52650;SDS011;38537;47.226;39.702;2023-07-31T04:50:22;13.48;;;6.95;;
52650;SDS011;38537;47.226;39.702;2023-07-31T04:52:50;11.25;;;5.72;;
52650;SDS011;38537;47.226;39.702;2023-07-31T04:55:19;8.05;;;5.38;;
52650;SDS011;38537;47.226;39.702;2023-07-31T04:57:46;8.07;;;5.55;;
52650;SDS011;38537;47.226;39.702;2023-07-31T05:00:13;9.95;;;6.38;;
52650;SDS011;38537;47.226;39.702;2023-07-31T05:02:41;15.43;;;6.28;;
52650;SDS011;38537;47.226;39.702;2023-07-31T05:05:09;8.90;;;6.10;;
52650;SDS011;38537;47.226;39.702;2023-07-31T05:07:37;9.00;;;6.32;;
52650;SDS011;38537;47.226;39.702;2023-07-31T05:10:05;8.73;;;5.47;;
52650;SDS011;38537;47.226;39.702;2023-07-31T05:12:33;13.02;;;6.38;;
52650;SDS011;38537;47.226;39.702;2023-07-31T05:15:00;8.43;;;6.28;;
52650;SDS011;38537;47.226;39.702;2023-07-31T05:17:30;6.88;;;5.00;;
52650;SDS011;38537;47.226;39.702;2023-07-31T05:19:57;7.70;;;5.10;;
52650;SDS011;38537;47.226;39.702;2023-07-31T05:22:25;9.43;;;5.00;;
52650;SDS011;38537;47.226;39.702;2023-07-31T05:24:52;8.18;;;4.70;;
52650;SDS011;38537;47.226;39.702;2023-07-31T05:27:21;7.38;;;4.78;;
52650;SDS011;38537;47.226;39.702;2023-07-31T05:29:48;6.28;;;4.70;;
52650;SDS011;38537;47.226;39.702;2023-07-31T05:32:15;6.35;;;4.70;;
52650;SDS011;38537;47.226;39.702;2023-07-31T05:34:43;7.53;;;4.28;;
52650;SDS011;38537;47.226;39.702;2023-07-31T05:37:11;5.55;;;3.95;;
52650;SDS011;38537;47.226;39.702;2023-07-31T05:39:39;6.20;;;3.97;;
52650;SDS011;38537;47.226;39.702;2023-07-31T05:42:06;7.55;;;4.95;;
52650;SDS011;38537;47.226;39.702;2023-07-31T05:44:34;5.75;;;4.43;;
52650;SDS011;38537;47.226;39.702;2023-07-31T05:47:01;4.10;;;3.72;;
52650;SDS011;38537;47.226;39.702;2023-07-31T05:49:28;6.18;;;3.78;;
52650;SDS011;38537;47.226;39.702;2023-07-31T05:51:56;4.60;;;3.40;;
52650;SDS011;38537;47.226;39.702;2023-07-31T05:54:23;5.63;;;3.30;;
52650;SDS011;38537;47.226;39.702;2023-07-31T05:56:51;4.60;;;3.17;;
52650;SDS011;38537;47.226;39.702;2023-07-31T05:59:18;4.82;;;3.42;;
52650;SDS011;38537;47.226;39.702;2023-07-31T06:01:45;9.93;;;3.85;;
52650;SDS011;38537;47.226;39.702;2023-07-31T06:04:13;6.05;;;3.47;;
52650;SDS011;38537;47.226;39.702;2023-07-31T06:06:40;8.35;;;3.45;;
52650;SDS011;38537;47.226;39.702;2023-07-31T06:09:08;7.30;;;3.85;;
52650;SDS011;38537;47.226;39.702;2023-07-31T06:11:35;7.43;;;3.33;;
52650;SDS011;38537;47.226;39.702;2023-07-31T06:14:02;5.25;;;3.70;;
52650;SDS011;38537;47.226;39.702;2023-07-31T06:16:30;3.35;;;3.00;;
52650;SDS011;38537;47.226;39.702;2023-07-31T06:18:57;4.25;;;3.10;;
52650;SDS011;38537;47.226;39.702;2023-07-31T06:21:25;3.83;;;3.00;;
52650;SDS011;38537;47.226;39.702;2023-07-31T06:23:52;4.63;;;2.95;;
52650;SDS011;38537;47.226;39.702;2023-07-31T06:26:20;3.45;;;3.03;;
52650;SDS011;38537;47.226;39.702;2023-07-31T06:28:47;4.20;;;3.08;;
52650;SDS011;38537;47.226;39.702;2023-07-31T06:31:14;4.15;;;2.90;;
52650;SDS011;38537;47.226;39.702;2023-07-31T06:33:42;5.25;;;3.38;;
52650;SDS011;38537;47.226;39.702;2023-07-31T06:36:09;3.13;;;2.83;;
52650;SDS011;38537;47.226;39.702;2023-07-31T06:38:36;8.80;;;3.78;;
52650;SDS011;38537;47.226;39.702;2023-07-31T06:41:04;3.78;;;3.05;;
52650;SDS011;38537;47.226;39.702;2023-07-31T06:43:31;8.15;;;3.80;;
52650;SDS011;38537;47.226;39.702;2023-07-31T06:46:04;6.35;;;3.63;;
52650;SDS011;38537;47.226;39.702;2023-07-31T06:48:33;6.60;;;3.70;;
52650;SDS011;38537;47.226;39.702;2023-07-31T06:51:01;7.28;;;3.67;;
52650;SDS011;38537;47.226;39.702;2023-07-31T06:53:28;4.18;;;3.40;;
52650;SDS011;38537;47.226;39.702;2023-07-31T06:55:56;4.55;;;3.10;;
52650;SDS011;38537;47.226;39.702;2023-07-31T06:58:23;11.85;;;4.00;;
52650;SDS011;38537;47.226;39.702;2023-07-31T07:00:50;7.60;;;3.97;;
52650;SDS011;38537;47.226;39.702;2023-07-31T07:03:18;13.95;;;4.40;;
52650;SDS011;38537;47.226;39.702;2023-07-31T07:05:46;4.78;;;3.30;;
52650;SDS011;38537;47.226;39.702;2023-07-31T07:08:14;5.95;;;3.50;;
52650;SDS011;38537;47.226;39.702;2023-07-31T07:10:41;7.63;;;4.00;;
52650;SDS011;38537;47.226;39.702;2023-07-31T07:13:09;5.53;;;3.38;;
52650;SDS011;38537;47.226;39.702;2023-07-31T07:15:36;12.15;;;3.75;;
52650;SDS011;38537;47.226;39.702;2023-07-31T07:18:03;8.82;;;3.75;;
52650;SDS011;38537;47.226;39.702;2023-07-31T07:20:31;7.50;;;3.47;;
52650;SDS011;38537;47.226;39.702;2023-07-31T07:22:59;8.60;;;3.33;;
52650;SDS011;38537;47.226;39.702;2023-07-31T07:25:26;5.85;;;3.45;;
52650;SDS011;38537;47.226;39.702;2023-07-31T07:27:54;6.90;;;3.28;;
52650;SDS011;38537;47.226;39.702;2023-07-31T07:30:22;8.25;;;3.40;;
52650;SDS011;38537;47.226;39.702;2023-07-31T07:32:52;8.82;;;3.70;;
52650;SDS011;38537;47.226;39.702;2023-07-31T07:35:19;14.27;;;3.67;;
52650;SDS011;38537;47.226;39.702;2023-07-31T07:37:48;8.85;;;3.75;;
52650;SDS011;38537;47.226;39.702;2023-07-31T07:40:19;9.70;;;4.22;;
52650;SDS011;38537;47.226;39.702;2023-07-31T07:42:47;12.05;;;4.22;;
52650;SDS011;38537;47.226;39.702;2023-07-31T07:45:14;6.45;;;3.63;;
52650;SDS011;38537;47.226;39.702;2023-07-31T07:47:42;7.95;;;3.88;;
52650;SDS011;38537;47.226;39.702;2023-07-31T07:50:09;7.05;;;3.90;;
52650;SDS011;38537;47.226;39.702;2023-07-31T07:52:37;8.02;;;3.60;;
52650;SDS011;38537;47.226;39.702;2023-07-31T07:55:04;10.77;;;3.90;;
52650;SDS011;38537;47.226;39.702;2023-07-31T07:57:32;9.68;;;4.40;;
52650;SDS011;38537;47.226;39.702;2023-07-31T07:59:59;7.45;;;4.00;;
52650;SDS011;38537;47.226;39.702;2023-07-31T08:02:40;8.15;;;4.28;;
52650;SDS011;38537;47.226;39.702;2023-07-31T08:05:08;7.78;;;4.15;;
52650;SDS011;38537;47.226;39.702;2023-07-31T08:07:35;9.50;;;4.85;;
52650;SDS011;38537;47.226;39.702;2023-07-31T08:10:03;9.07;;;4.28;;
52650;SDS011;38537;47.226;39.702;2023-07-31T08:12:31;7.50;;;4.35;;
52650;SDS011;38537;47.226;39.702;2023-07-31T08:14:58;6.55;;;4.47;;
52650;SDS011;38537;47.226;39.702;2023-07-31T08:17:30;6.25;;;4.45;;
52650;SDS011;38537;47.226;39.702;2023-07-31T08:19:57;10.27;;;3.97;;
52650;SDS011;38537;47.226;39.702;2023-07-31T08:22:25;7.60;;;3.92;;
52650;SDS011;38537;47.226;39.702;2023-07-31T08:24:53;5.65;;;3.95;;
52650;SDS011;38537;47.226;39.702;2023-07-31T08:27:20;6.32;;;4.20;;
52650;SDS011;38537;47.226;39.702;2023-07-31T08:29:48;7.65;;;4.22;;
52650;SDS011;38537;47.226;39.702;2023-07-31T08:32:15;10.65;;;4.50;;
52650;SDS011;38537;47.226;39.702;2023-07-31T08:34:43;8.88;;;4.47;;
52650;SDS011;38537;47.226;39.702;2023-07-31T08:37:10;6.00;;;4.15;;
52650;SDS011;38537;47.226;39.702;2023-07-31T08:39:38;7.47;;;4.30;;
52650;SDS011;38537;47.226;39.702;2023-07-31T08:42:08;6.00;;;3.53;;
52650;SDS011;38537;47.226;39.702;2023-07-31T08:44:36;6.93;;;3.90;;
52650;SDS011;38537;47.226;39.702;2023-07-31T08:47:05;5.70;;;3.85;;
52650;SDS011;38537;47.226;39.702;2023-07-31T08:49:33;4.82;;;3.50;;
52650;SDS011;38537;47.226;39.702;2023-07-31T08:52:02;4.55;;;3.20;;
52650;SDS011;38537;47.226;39.702;2023-07-31T08:54:30;5.28;;;3.40;;
52650;SDS011;38537;47.226;39.702;2023-07-31T08:56:59;4.45;;;3.22;;
52650;SDS011;38537;47.226;39.702;2023-07-31T08:59:30;8.02;;;3.20;;
52650;SDS011;38537;47.226;39.702;2023-07-31T09:02:03;7.50;;;3.00;;
52650;SDS011;38537;47.226;39.702;2023-07-31T09:04:34;4.57;;;3.30;;
52650;SDS011;38537;47.226;39.702;2023-07-31T09:07:02;7.47;;;3.30;;
52650;SDS011;38537;47.226;39.702;2023-07-31T09:09:31;5.60;;;3.20;;
52650;SDS011;38537;47.226;39.702;2023-07-31T09:11:59;4.60;;;2.97;;
52650;SDS011;38537;47.226;39.702;2023-07-31T09:14:26;5.82;;;3.17;;
52650;SDS011;38537;47.226;39.702;2023-07-31T09:16:54;5.53;;;3.33;;
52650;SDS011;38537;47.226;39.702;2023-07-31T09:19:32;6.15;;;2.60;;
52650;SDS011;38537;47.226;39.702;2023-07-31T09:22:01;5.60;;;3.00;;
52650;SDS011;38537;47.226;39.702;2023-07-31T09:24:29;5.05;;;2.90;;
52650;SDS011;38537;47.226;39.702;2023-07-31T09:26:58;3.72;;;2.70;;
52650;SDS011;38537;47.226;39.702;2023-07-31T09:29:27;3.42;;;2.80;;
52650;SDS011;38537;47.226;39.702;2023-07-31T09:31:56;3.22;;;2.92;;
52650;SDS011;38537;47.226;39.702;2023-07-31T09:34:38;5.18;;;3.13;;
52650;SDS011;38537;47.226;39.702;2023-07-31T09:37:09;4.80;;;3.22;;
52650;SDS011;38537;47.226;39.702;2023-07-31T09:39:47;4.40;;;2.80;;
52650;SDS011;38537;47.226;39.702;2023-07-31T09:42:24;3.70;;;2.70;;
52650;SDS011;38537;47.226;39.702;2023-07-31T09:44:52;3.45;;;2.67;;
52650;SDS011;38537;47.226;39.702;2023-07-31T09:47:21;4.18;;;2.85;;
52650;SDS011;38537;47.226;39.702;2023-07-31T09:49:52;4.00;;;2.65;;
52650;SDS011;38537;47.226;39.702;2023-07-31T09:52:20;5.22;;;2.75;;
52650;SDS011;38537;47.226;39.702;2023-07-31T09:54:47;5.75;;;2.75;;
52650;SDS011;38537;47.226;39.702;2023-07-31T09:57:15;3.17;;;2.80;;
52650;SDS011;38537;47.226;39.702;2023-07-31T09:59:45;5.95;;;3.25;;
52650;SDS011;38537;47.226;39.702;2023-07-31T10:02:15;4.28;;;3.05;;
52650;SDS011;38537;47.226;39.702;2023-07-31T10:04:49;3.00;;;2.72;;
52650;SDS011;38537;47.226;39.702;2023-07-31T10:07:17;7.82;;;2.70;;
52650;SDS011;38537;47.226;39.702;2023-07-31T10:09:46;6.45;;;3.30;;
52650;SDS011;38537;47.226;39.702;2023-07-31T10:12:18;6.47;;;2.75;;
52650;SDS011;38537;47.226;39.702;2023-07-31T10:14:49;3.80;;;2.90;;
52650;SDS011;38537;47.226;39.702;2023-07-31T10:17:18;3.28;;;2.78;;
52650;SDS011;38537;47.226;39.702;2023-07-31T10:19:46;3.97;;;2.85;;
52650;SDS011;38537;47.226;39.702;2023-07-31T10:22:15;2.90;;;2.60;;
52650;SDS011;38537;47.226;39.702;2023-07-31T10:24:42;4.13;;;3.17;;
52650;SDS011;38537;47.226;39.702;2023-07-31T10:27:10;4.63;;;2.80;;
52650;SDS011;38537;47.226;39.702;2023-07-31T10:29:38;3.92;;;2.90;;
52650;SDS011;38537;47.226;39.702;2023-07-31T10:32:07;3.03;;;2.70;;
52650;SDS011;38537;47.226;39.702;2023-07-31T10:34:38;3.83;;;2.72;;
52650;SDS011;38537;47.226;39.702;2023-07-31T10:40:10;3.90;;;2.65;;
52650;SDS011;38537;47.226;39.702;2023-07-31T10:42:52;4.63;;;2.67;;
52650;SDS011;38537;47.226;39.702;2023-07-31T10:45:33;4.00;;;2.50;;
52650;SDS011;38537;47.226;39.702;2023-07-31T10:48:06;3.42;;;2.55;;
52650;SDS011;38537;47.226;39.702;2023-07-31T10:50:50;4.82;;;2.80;;
52650;SDS011;38537;47.226;39.702;2023-07-31T10:53:22;5.68;;;2.80;;
52650;SDS011;38537;47.226;39.702;2023-07-31T10:56:00;2.75;;;2.50;;
52650;SDS011;38537;47.226;39.702;2023-07-31T10:58:28;5.07;;;2.97;;
52650;SDS011;38537;47.226;39.702;2023-07-31T11:00:56;6.60;;;2.90;;
52650;SDS011;38537;47.226;39.702;2023-07-31T11:03:26;4.18;;;3.00;;
52650;SDS011;38537;47.226;39.702;2023-07-31T11:06:07;6.32;;;2.70;;
52650;SDS011;38537;47.226;39.702;2023-07-31T11:08:40;5.05;;;3.05;;
52650;SDS011;38537;47.226;39.702;2023-07-31T11:11:10;4.30;;;2.60;;
52650;SDS011;38537;47.226;39.702;2023-07-31T11:13:40;4.75;;;2.92;;
52650;SDS011;38537;47.226;39.702;2023-07-31T11:16:10;6.25;;;3.00;;
52650;SDS011;38537;47.226;39.702;2023-07-31T11:18:44;4.28;;;3.05;;
52650;SDS011;38537;47.226;39.702;2023-07-31T11:21:18;5.63;;;3.20;;
52650;SDS011;38537;47.226;39.702;2023-07-31T11:23:47;3.42;;;2.90;;
52650;SDS011;38537;47.226;39.702;2023-07-31T11:26:16;5.35;;;2.90;;
52650;SDS011;38537;47.226;39.702;2023-07-31T11:28:48;5.78;;;3.00;;
52650;SDS011;38537;47.226;39.702;2023-07-31T11:31:16;16.52;;;3.15;;
52650;SDS011;38537;47.226;39.702;2023-07-31T11:33:45;4.18;;;3.00;;
52650;SDS011;38537;47.226;39.702;2023-07-31T11:36:17;3.60;;;2.45;;
52650;SDS011;38537;47.226;39.702;2023-07-31T11:38:47;3.17;;;2.83;;
52650;SDS011;38537;47.226;39.702;2023-07-31T11:41:15;4.75;;;2.80;;
52650;SDS011;38537;47.226;39.702;2023-07-31T11:43:45;4.05;;;3.15;;
52650;SDS011;38537;47.226;39.702;2023-07-31T11:46:15;4.38;;;2.70;;
52650;SDS011;38537;47.226;39.702;2023-07-31T11:48:43;5.60;;;2.60;;
52650;SDS011;38537;47.226;39.702;2023-07-31T11:51:10;3.83;;;2.55;;
52650;SDS011;38537;47.226;39.702;2023-07-31T11:53:53;6.50;;;2.75;;
52650;SDS011;38537;47.226;39.702;2023-07-31T11:56:24;5.10;;;2.67;;
52650;SDS011;38537;47.226;39.702;2023-07-31T11:58:53;10.63;;;2.90;;
52650;SDS011;38537;47.226;39.702;2023-07-31T12:01:24;3.92;;;2.65;;
52650;SDS011;38537;47.226;39.702;2023-07-31T12:03:54;5.57;;;2.60;;
52650;SDS011;38537;47.226;39.702;2023-07-31T12:06:42;4.82;;;2.35;;
52650;SDS011;38537;47.226;39.702;2023-07-31T12:09:11;8.95;;;2.92;;
52650;SDS011;38537;47.226;39.702;2023-07-31T12:11:45;3.50;;;2.47;;
52650;SDS011;38537;47.226;39.702;2023-07-31T12:16:52;11.10;;;3.17;;
52650;SDS011;38537;47.226;39.702;2023-07-31T12:19:25;6.85;;;3.00;;
52650;SDS011;38537;47.226;39.702;2023-07-31T12:21:58;8.27;;;2.83;;
52650;SDS011;38537;47.226;39.702;2023-07-31T12:24:27;4.68;;;2.72;;
52650;SDS011;38537;47.226;39.702;2023-07-31T12:26:54;4.25;;;2.42;;
52650;SDS011;38537;47.226;39.702;2023-07-31T12:29:22;5.03;;;2.83;;
52650;SDS011;38537;47.226;39.702;2023-07-31T12:31:49;6.07;;;3.03;;
52650;SDS011;38537;47.226;39.702;2023-07-31T12:34:17;3.78;;;2.60;;
52650;SDS011;38537;47.226;39.702;2023-07-31T12:36:47;5.93;;;2.65;;
52650;SDS011;38537;47.226;39.702;2023-07-31T12:39:17;5.38;;;2.60;;
52650;SDS011;38537;47.226;39.702;2023-07-31T12:41:44;5.80;;;2.70;;
52650;SDS011;38537;47.226;39.702;2023-07-31T12:44:12;8.98;;;2.72;;
52650;SDS011;38537;47.226;39.702;2023-07-31T12:46:39;3.38;;;2.53;;
52650;SDS011;38537;47.226;39.702;2023-07-31T12:49:07;7.20;;;2.78;;
52650;SDS011;38537;47.226;39.702;2023-07-31T12:51:35;5.13;;;2.63;;
52650;SDS011;38537;47.226;39.702;2023-07-31T12:54:02;6.57;;;2.65;;
52650;SDS011;38537;47.226;39.702;2023-07-31T12:56:29;6.00;;;3.03;;
52650;SDS011;38537;47.226;39.702;2023-07-31T12:58:57;6.47;;;2.90;;
52650;SDS011;38537;47.226;39.702;2023-07-31T13:01:24;5.50;;;2.67;;
52650;SDS011;38537;47.226;39.702;2023-07-31T13:03:51;5.43;;;2.78;;
52650;SDS011;38537;47.226;39.702;2023-07-31T13:06:19;3.15;;;2.40;;
52650;SDS011;38537;47.226;39.702;2023-07-31T13:08:47;5.75;;;2.90;;
52650;SDS011;38537;47.226;39.702;2023-07-31T13:11:14;5.10;;;2.65;;
52650;SDS011;38537;47.226;39.702;2023-07-31T13:13:41;4.50;;;2.85;;
52650;SDS011;38537;47.226;39.702;2023-07-31T13:16:09;6.85;;;2.70;;
52650;SDS011;38537;47.226;39.702;2023-07-31T13:18:37;6.43;;;2.80;;
52650;SDS011;38537;47.226;39.702;2023-07-31T13:21:06;5.20;;;2.53;;
52650;SDS011;38537;47.226;39.702;2023-07-31T13:23:33;5.90;;;2.60;;
52650;SDS011;38537;47.226;39.702;2023-07-31T13:26:00;5.20;;;2.55;;
52650;SDS011;38537;47.226;39.702;2023-07-31T13:28:27;6.07;;;2.50;;
52650;SDS011;38537;47.226;39.702;2023-07-31T13:30:55;3.35;;;2.35;;
52650;SDS011;38537;47.226;39.702;2023-07-31T13:33:22;3.88;;;2.55;;
52650;SDS011;38537;47.226;39.702;2023-07-31T13:36:03;4.28;;;2.35;;
52650;SDS011;38537;47.226;39.702;2023-07-31T13:38:31;3.55;;;2.40;;
52650;SDS011;38537;47.226;39.702;2023-07-31T13:40:58;6.07;;;2.70;;
52650;SDS011;38537;47.226;39.702;2023-07-31T13:43:25;4.68;;;2.50;;
52650;SDS011;38537;47.226;39.702;2023-07-31T13:45:54;6.88;;;2.45;;
52650;SDS011;38537;47.226;39.702;2023-07-31T13:48:22;2.63;;;2.33;;
52650;SDS011;38537;47.226;39.702;2023-07-31T13:50:49;3.80;;;2.83;;
52650;SDS011;38537;47.226;39.702;2023-07-31T13:53:16;2.50;;;2.10;;
52650;SDS011;38537;47.226;39.702;2023-07-31T13:55:44;3.05;;;2.35;;
52650;SDS011;38537;47.226;39.702;2023-07-31T13:58:12;3.70;;;2.15;;
52650;SDS011;38537;47.226;39.702;2023-07-31T14:00:39;3.30;;;2.22;;
52650;SDS011;38537;47.226;39.702;2023-07-31T14:03:07;5.38;;;2.22;;
52650;SDS011;38537;47.226;39.702;2023-07-31T14:05:34;3.88;;;2.28;;
52650;SDS011;38537;47.226;39.702;2023-07-31T14:08:02;4.03;;;2.38;;
52650;SDS011;38537;47.226;39.702;2023-07-31T14:10:29;3.92;;;2.17;;
52650;SDS011;38537;47.226;39.702;2023-07-31T14:12:57;3.03;;;2.40;;
52650;SDS011;38537;47.226;39.702;2023-07-31T14:15:24;3.90;;;2.63;;
52650;SDS011;38537;47.226;39.702;2023-07-31T14:17:52;6.38;;;2.50;;
52650;SDS011;38537;47.226;39.702;2023-07-31T14:20:20;2.88;;;2.10;;
52650;SDS011;38537;47.226;39.702;2023-07-31T14:22:48;6.72;;;2.40;;
52650;SDS011;38537;47.226;39.702;2023-07-31T14:25:15;3.03;;;2.42;;
52650;SDS011;38537;47.226;39.702;2023-07-31T14:27:43;9.27;;;2.58;;
52650;SDS011;38537;47.226;39.702;2023-07-31T14:30:10;2.60;;;2.20;;
52650;SDS011;38537;47.226;39.702;2023-07-31T14:32:38;2.50;;;2.30;;
52650;SDS011;38537;47.226;39.702;2023-07-31T14:35:05;4.90;;;2.38;;
52650;SDS011;38537;47.226;39.702;2023-07-31T14:37:39;2.80;;;2.40;;
52650;SDS011;38537;47.226;39.702;2023-07-31T14:40:08;3.65;;;2.10;;
52650;SDS011;38537;47.226;39.702;2023-07-31T14:42:37;3.45;;;2.50;;
52650;SDS011;38537;47.226;39.702;2023-07-31T14:45:06;3.25;;;2.22;;
52650;SDS011;38537;47.226;39.702;2023-07-31T14:47:34;3.90;;;2.85;;
52650;SDS011;38537;47.226;39.702;2023-07-31T14:50:02;3.90;;;2.30;;